sensor_id;sensor_type;location;lat;lon;timestamp;pressure;altitude;pressure_sealevel;temperature;humidity
38912;BME280;28444;48.056;14.408;2022-08-25T00:01:38;97804.34;;;16.99;100.00
38912;BME280;28444;48.056;14.408;2022-08-25T00:04:08;97796.78;;;17.00;100.00
38912;BME280;28444;48.056;14.408;2022-08-25T00:06:38;97803.13;;;17.02;100.00
38912;BME280;28444;48.056;14.408;2022-08-25T00:09:06;97801.91;;;17.05;100.00
38912;BME280;28444;48.056;14.408;2022-08-25T00:11:35;97803.97;;;17.05;100.00
38912;BME280;28444;48.056;14.408;2022-08-25T00:14:06;97789.22;;;17.00;100.00
38912;BME280;28444;48.056;14.408;2022-08-25T00:16:33;97792.31;;;16.95;100.00
38912;BME280;28444;48.056;14.408;2022-08-25T00:19:04;97802.06;;;16.96;100.00
38912;BME280;28444;48.056;14.408;2022-08-25T00:21:32;97803.00;;;17.00;100.00
38912;BME280;28444;48.056;14.408;2022-08-25T00:24:00;97799.41;;;16.98;100.00
38912;BME280;28444;48.056;14.408;2022-08-25T00:26:28;97793.28;;;16.99;100.00
38912;BME280;28444;48.056;14.408;2022-08-25T00:28:55;97792.56;;;16.99;100.00
38912;BME280;28444;48.056;14.408;2022-08-25T00:31:27;97791.13;;;16.98;100.00
38912;BME280;28444;48.056;14.408;2022-08-25T00:34:06;97795.94;;;16.97;100.00
38912;BME280;28444;48.056;14.408;2022-08-25T00:36:34;97797.25;;;16.96;100.00
38912;BME280;28444;48.056;14.408;2022-08-25T00:39:02;97791.38;;;16.90;100.00
38912;BME280;28444;48.056;14.408;2022-08-25T00:41:29;97798.22;;;16.89;100.00
38912;BME280;28444;48.056;14.408;2022-08-25T00:43:58;97784.28;;;16.87;100.00
38912;BME280;28444;48.056;14.408;2022-08-25T00:46:38;97792.19;;;16.81;100.00
38912;BME280;28444;48.056;14.408;2022-08-25T00:49:09;97792.56;;;16.75;100.00
38912;BME280;28444;48.056;14.408;2022-08-25T00:52:12;97791.13;;;16.74;100.00
38912;BME280;28444;48.056;14.408;2022-08-25T00:54:52;97790.25;;;16.72;100.00
38912;BME280;28444;48.056;14.408;2022-08-25T00:57:24;97792.28;;;16.71;100.00
38912;BME280;28444;48.056;14.408;2022-08-25T01:00:07;97788.69;;;16.69;100.00
38912;BME280;28444;48.056;14.408;2022-08-25T01:02:34;97795.63;;;16.70;100.00
38912;BME280;28444;48.056;14.408;2022-08-25T01:05:01;97797.81;;;16.71;100.00
38912;BME280;28444;48.056;14.408;2022-08-25T01:07:28;97804.78;;;16.72;100.00
38912;BME280;28444;48.056;14.408;2022-08-25T01:09:55;97791.59;;;16.71;100.00
38912;BME280;28444;48.056;14.408;2022-08-25T01:12:21;97797.81;;;16.71;100.00
38912;BME280;28444;48.056;14.408;2022-08-25T01:14:48;97793.59;;;16.70;100.00
38912;BME280;28444;48.056;14.408;2022-08-25T01:17:16;97797.56;;;16.67;100.00
38912;BME280;28444;48.056;14.408;2022-08-25T01:19:43;97796.50;;;16.72;100.00
38912;BME280;28444;48.056;14.408;2022-08-25T01:22:10;97786.16;;;16.73;100.00
38912;BME280;28444;48.056;14.408;2022-08-25T01:24:46;97775.00;;;16.71;100.00
38912;BME280;28444;48.056;14.408;2022-08-25T01:27:18;97768.75;;;16.70;100.00
38912;BME280;28444;48.056;14.408;2022-08-25T01:29:45;97775.84;;;16.73;100.00
38912;BME280;28444;48.056;14.408;2022-08-25T01:32:13;97784.13;;;16.73;100.00
38912;BME280;28444;48.056;14.408;2022-08-25T01:34:42;97782.94;;;16.76;100.00
38912;BME280;28444;48.056;14.408;2022-08-25T01:37:12;97780.81;;;16.75;100.00
38912;BME280;28444;48.056;14.408;2022-08-25T01:39:41;97781.97;;;16.72;100.00
38912;BME280;28444;48.056;14.408;2022-08-25T01:45:26;97772.25;;;16.71;100.00
38912;BME280;28444;48.056;14.408;2022-08-25T01:47:54;97773.31;;;16.66;100.00
38912;BME280;28444;48.056;14.408;2022-08-25T01:50:21;97775.84;;;16.61;100.00
38912;BME280;28444;48.056;14.408;2022-08-25T01:55:41;97768.03;;;16.58;100.00
38912;BME280;28444;48.056;14.408;2022-08-25T01:58:30;97774.03;;;16.54;100.00
38912;BME280;28444;48.056;14.408;2022-08-25T02:00:59;97776.78;;;16.54;100.00
38912;BME280;28444;48.056;14.408;2022-08-25T02:03:28;97775.22;;;16.51;100.00
38912;BME280;28444;48.056;14.408;2022-08-25T02:05:56;97768.59;;;16.45;100.00
38912;BME280;28444;48.056;14.408;2022-08-25T02:08:24;97766.59;;;16.45;100.00
38912;BME280;28444;48.056;14.408;2022-08-25T02:10:52;97769.59;;;16.49;100.00
38912;BME280;28444;48.056;14.408;2022-08-25T02:13:19;97766.84;;;16.49;100.00
38912;BME280;28444;48.056;14.408;2022-08-25T02:15:57;97768.03;;;16.46;100.00
38912;BME280;28444;48.056;14.408;2022-08-25T02:18:25;97769.81;;;16.42;100.00
38912;BME280;28444;48.056;14.408;2022-08-25T02:20:52;97769.56;;;16.37;100.00
38912;BME280;28444;48.056;14.408;2022-08-25T02:23:19;97763.94;;;16.35;100.00
38912;BME280;28444;48.056;14.408;2022-08-25T02:25:46;97760.47;;;16.35;100.00
38912;BME280;28444;48.056;14.408;2022-08-25T02:28:13;97763.47;;;16.39;100.00
38912;BME280;28444;48.056;14.408;2022-08-25T02:30:41;97762.03;;;16.38;100.00
38912;BME280;28444;48.056;14.408;2022-08-25T02:33:08;97742.09;;;16.40;100.00
38912;BME280;28444;48.056;14.408;2022-08-25T02:35:35;97744.47;;;16.33;100.00
38912;BME280;28444;48.056;14.408;2022-08-25T02:38:02;97744.94;;;16.30;100.00
38912;BME280;28444;48.056;14.408;2022-08-25T02:40:29;97746.66;;;16.23;100.00
38912;BME280;28444;48.056;14.408;2022-08-25T02:42:56;97750.84;;;16.24;100.00
38912;BME280;28444;48.056;14.408;2022-08-25T02:45:23;97734.88;;;16.23;100.00
38912;BME280;28444;48.056;14.408;2022-08-25T02:47:49;97733.31;;;16.20;100.00
38912;BME280;28444;48.056;14.408;2022-08-25T02:50:17;97736.19;;;16.22;100.00
38912;BME280;28444;48.056;14.408;2022-08-25T02:52:44;97725.16;;;16.22;100.00
38912;BME280;28444;48.056;14.408;2022-08-25T02:55:12;97730.56;;;16.20;100.00
38912;BME280;28444;48.056;14.408;2022-08-25T02:57:40;97732.94;;;16.13;100.00
38912;BME280;28444;48.056;14.408;2022-08-25T03:00:10;97734.38;;;16.15;100.00
38912;BME280;28444;48.056;14.408;2022-08-25T03:02:38;97744.56;;;16.12;100.00
38912;BME280;28444;48.056;14.408;2022-08-25T03:05:08;97748.53;;;16.09;100.00
38912;BME280;28444;48.056;14.408;2022-08-25T03:07:35;97742.88;;;16.07;100.00
38912;BME280;28444;48.056;14.408;2022-08-25T03:10:09;97752.81;;;16.00;100.00
38912;BME280;28444;48.056;14.408;2022-08-25T03:12:36;97749.69;;;15.94;100.00
38912;BME280;28444;48.056;14.408;2022-08-25T03:15:04;97756.25;;;15.89;100.00
38912;BME280;28444;48.056;14.408;2022-08-25T03:17:38;97754.09;;;15.87;100.00
38912;BME280;28444;48.056;14.408;2022-08-25T03:20:06;97749.31;;;15.88;100.00
38912;BME280;28444;48.056;14.408;2022-08-25T03:22:33;97755.28;;;15.84;100.00
38912;BME280;28444;48.056;14.408;2022-08-25T03:25:00;97745.91;;;15.78;100.00
38912;BME280;28444;48.056;14.408;2022-08-25T03:27:50;97749.97;;;15.77;100.00
38912;BME280;28444;48.056;14.408;2022-08-25T03:30:17;97745.06;;;15.75;100.00
38912;BME280;28444;48.056;14.408;2022-08-25T03:32:44;97741.56;;;15.75;100.00
38912;BME280;28444;48.056;14.408;2022-08-25T03:35:11;97741.00;;;15.76;100.00
38912;BME280;28444;48.056;14.408;2022-08-25T03:37:38;97739.78;;;15.79;100.00
38912;BME280;28444;48.056;14.408;2022-08-25T03:40:09;97738.97;;;15.77;100.00
38912;BME280;28444;48.056;14.408;2022-08-25T03:42:43;97741.00;;;15.76;100.00
38912;BME280;28444;48.056;14.408;2022-08-25T03:45:13;97737.63;;;15.78;100.00
38912;BME280;28444;48.056;14.408;2022-08-25T03:47:41;97739.31;;;15.83;100.00
38912;BME280;28444;48.056;14.408;2022-08-25T03:50:09;97733.09;;;15.82;100.00
38912;BME280;28444;48.056;14.408;2022-08-25T03:52:36;97730.34;;;15.82;100.00
38912;BME280;28444;48.056;14.408;2022-08-25T03:55:10;97723.78;;;15.87;100.00
38912;BME280;28444;48.056;14.408;2022-08-25T03:57:38;97724.13;;;15.94;100.00
38912;BME280;28444;48.056;14.408;2022-08-25T04:00:09;97723.66;;;15.97;100.00
38912;BME280;28444;48.056;14.408;2022-08-25T04:02:38;97728.94;;;15.93;100.00
38912;BME280;28444;48.056;14.408;2022-08-25T04:05:06;97719.22;;;15.92;100.00
38912;BME280;28444;48.056;14.408;2022-08-25T04:07:34;97717.66;;;15.89;100.00
38912;BME280;28444;48.056;14.408;2022-08-25T04:10:02;97719.22;;;15.92;100.00
38912;BME280;28444;48.056;14.408;2022-08-25T04:12:29;97719.22;;;15.92;100.00
38912;BME280;28444;48.056;14.408;2022-08-25T04:14:56;97722.69;;;15.93;100.00
38912;BME280;28444;48.056;14.408;2022-08-25T04:17:23;97719.59;;;15.98;100.00
38912;BME280;28444;48.056;14.408;2022-08-25T04:19:50;97726.09;;;16.03;100.00
38912;BME280;28444;48.056;14.408;2022-08-25T04:22:17;97724.19;;;16.05;100.00
38912;BME280;28444;48.056;14.408;2022-08-25T04:24:44;97724.19;;;16.05;100.00
38912;BME280;28444;48.056;14.408;2022-08-25T04:27:11;97718.91;;;16.09;100.00
38912;BME280;28444;48.056;14.408;2022-08-25T04:29:37;97726.72;;;16.13;100.00
38912;BME280;28444;48.056;14.408;2022-08-25T04:32:04;97719.41;;;16.18;100.00
38912;BME280;28444;48.056;14.408;2022-08-25T04:34:31;97726.47;;;16.21;100.00
38912;BME280;28444;48.056;14.408;2022-08-25T04:37:01;97731.16;;;16.30;100.00
38912;BME280;28444;48.056;14.408;2022-08-25T04:39:29;97735.16;;;16.39;100.00
38912;BME280;28444;48.056;14.408;2022-08-25T04:41:56;97735.88;;;16.39;100.00
38912;BME280;28444;48.056;14.408;2022-08-25T04:44:22;97732.63;;;16.43;100.00
38912;BME280;28444;48.056;14.408;2022-08-25T04:46:49;97728.44;;;16.42;100.00
38912;BME280;28444;48.056;14.408;2022-08-25T04:49:16;97730.81;;;16.47;100.00
38912;BME280;28444;48.056;14.408;2022-08-25T04:51:43;97733.09;;;16.51;100.00
38912;BME280;28444;48.056;14.408;2022-08-25T04:54:12;97730.34;;;16.51;100.00
38912;BME280;28444;48.056;14.408;2022-08-25T04:56:42;97730.47;;;16.53;100.00
38912;BME280;28444;48.056;14.408;2022-08-25T04:59:11;97728.69;;;16.57;100.00
38912;BME280;28444;48.056;14.408;2022-08-25T05:01:39;97734.31;;;16.59;100.00
38912;BME280;28444;48.056;14.408;2022-08-25T05:04:09;97727.72;;;16.65;100.00
38912;BME280;28444;48.056;14.408;2022-08-25T05:06:54;97724.81;;;16.63;100.00
38912;BME280;28444;48.056;14.408;2022-08-25T05:09:20;97729.88;;;16.66;100.00
38912;BME280;28444;48.056;14.408;2022-08-25T05:11:47;97725.19;;;16.69;100.00
38912;BME280;28444;48.056;14.408;2022-08-25T05:14:14;97717.63;;;16.69;100.00
38912;BME280;28444;48.056;14.408;2022-08-25T05:16:45;97715.72;;;16.72;100.00
38912;BME280;28444;48.056;14.408;2022-08-25T05:19:11;97722.66;;;16.73;100.00
38912;BME280;28444;48.056;14.408;2022-08-25T05:21:39;97720.06;;;16.75;100.00
38912;BME280;28444;48.056;14.408;2022-08-25T05:24:06;97722.09;;;16.74;100.00
38912;BME280;28444;48.056;14.408;2022-08-25T05:26:34;97713.09;;;16.74;100.00
38912;BME280;28444;48.056;14.408;2022-08-25T05:29:03;97701.19;;;16.71;100.00
38912;BME280;28444;48.056;14.408;2022-08-25T05:31:31;97712.13;;;16.81;100.00
38912;BME280;28444;48.056;14.408;2022-08-25T05:33:58;97710.44;;;16.88;100.00
38912;BME280;28444;48.056;14.408;2022-08-25T05:36:26;97712.72;;;16.91;100.00
38912;BME280;28444;48.056;14.408;2022-08-25T05:38:53;97700.00;;;16.86;100.00
38912;BME280;28444;48.056;14.408;2022-08-25T05:41:25;97700.47;;;16.94;100.00
38912;BME280;28444;48.056;14.408;2022-08-25T05:43:52;97692.88;;;17.06;100.00
38912;BME280;28444;48.056;14.408;2022-08-25T05:46:19;97699.69;;;17.17;100.00
38912;BME280;28444;48.056;14.408;2022-08-25T05:48:47;97703.75;;;17.28;100.00
38912;BME280;28444;48.056;14.408;2022-08-25T05:51:14;97710.72;;;17.29;100.00
38912;BME280;28444;48.056;14.408;2022-08-25T05:53:44;97707.25;;;17.28;100.00
38912;BME280;28444;48.056;14.408;2022-08-25T05:56:12;97707.59;;;17.23;100.00
38912;BME280;28444;48.056;14.408;2022-08-25T05:58:40;97714.97;;;17.18;100.00
38912;BME280;28444;48.056;14.408;2022-08-25T06:01:08;97714.72;;;17.14;100.00
38912;BME280;28444;48.056;14.408;2022-08-25T06:03:53;97708.13;;;17.07;100.00
38912;BME280;28444;48.056;14.408;2022-08-25T06:06:21;97717.63;;;17.04;100.00
38912;BME280;28444;48.056;14.408;2022-08-25T06:08:48;97721.09;;;17.05;100.00
38912;BME280;28444;48.056;14.408;2022-08-25T06:11:15;97710.91;;;17.07;100.00
38912;BME280;28444;48.056;14.408;2022-08-25T06:13:42;97719.41;;;17.12;100.00
38912;BME280;28444;48.056;14.408;2022-08-25T06:16:09;97722.53;;;17.18;100.00
38912;BME280;28444;48.056;14.408;2022-08-25T06:18:36;97722.63;;;17.20;100.00
38912;BME280;28444;48.056;14.408;2022-08-25T06:21:10;97719.28;;;17.21;100.00
38912;BME280;28444;48.056;14.408;2022-08-25T06:23:39;97722.63;;;17.20;100.00
38912;BME280;28444;48.056;14.408;2022-08-25T06:26:09;97723.34;;;17.20;100.00
38912;BME280;28444;48.056;14.408;2022-08-25T06:28:46;97724.91;;;17.23;100.00
38912;BME280;28444;48.056;14.408;2022-08-25T06:31:13;97720.56;;;17.32;100.00
38912;BME280;28444;48.056;14.408;2022-08-25T06:33:40;97706.81;;;17.46;100.00
38912;BME280;28444;48.056;14.408;2022-08-25T06:36:07;97712.75;;;17.66;100.00
38912;BME280;28444;48.056;14.408;2022-08-25T06:38:34;97697.41;;;17.88;100.00
38912;BME280;28444;48.056;14.408;2022-08-25T06:41:05;97700.50;;;18.08;100.00
38912;BME280;28444;48.056;14.408;2022-08-25T06:43:33;97708.97;;;18.24;98.32
38912;BME280;28444;48.056;14.408;2022-08-25T06:46:21;97709.91;;;18.42;97.94
38912;BME280;28444;48.056;14.408;2022-08-25T06:49:03;97706.84;;;18.50;96.74
38912;BME280;28444;48.056;14.408;2022-08-25T06:51:30;97706.66;;;18.60;96.33
38912;BME280;28444;48.056;14.408;2022-08-25T06:53:57;97708.50;;;18.69;95.80
38912;BME280;28444;48.056;14.408;2022-08-25T06:56:24;97717.03;;;18.73;95.01
38912;BME280;28444;48.056;14.408;2022-08-25T06:58:52;97719.09;;;18.72;95.05
38912;BME280;28444;48.056;14.408;2022-08-25T07:01:21;97713.03;;;18.76;95.13
38912;BME280;28444;48.056;14.408;2022-08-25T07:03:54;97713.34;;;18.82;95.25
38912;BME280;28444;48.056;14.408;2022-08-25T07:06:24;97711.50;;;18.87;95.50
38912;BME280;28444;48.056;14.408;2022-08-25T07:08:51;97716.63;;;18.92;94.91
38912;BME280;28444;48.056;14.408;2022-08-25T07:11:18;97712.94;;;19.02;94.63
38912;BME280;28444;48.056;14.408;2022-08-25T07:13:47;97721.44;;;19.06;94.44
38912;BME280;28444;48.056;14.408;2022-08-25T07:16:15;97713.31;;;19.10;94.51
38912;BME280;28444;48.056;14.408;2022-08-25T07:18:43;97711.06;;;19.20;94.50
38912;BME280;28444;48.056;14.408;2022-08-25T07:21:11;97707.53;;;19.33;94.23
38912;BME280;28444;48.056;14.408;2022-08-25T07:23:40;97715.13;;;19.46;93.24
38912;BME280;28444;48.056;14.408;2022-08-25T07:26:16;97710.34;;;19.63;92.24
38912;BME280;28444;48.056;14.408;2022-08-25T07:29:07;97708.34;;;19.79;91.91
38912;BME280;28444;48.056;14.408;2022-08-25T07:31:35;97716.06;;;19.96;90.67
38912;BME280;28444;48.056;14.408;2022-08-25T07:34:03;97712.50;;;20.10;89.64
38912;BME280;28444;48.056;14.408;2022-08-25T07:36:48;97719.53;;;20.27;89.22
38912;BME280;28444;48.056;14.408;2022-08-25T07:39:15;97713.88;;;20.40;88.28
38912;BME280;28444;48.056;14.408;2022-08-25T07:41:47;97704.91;;;20.42;88.23
38912;BME280;28444;48.056;14.408;2022-08-25T07:44:19;97706.63;;;20.49;88.02
38912;BME280;28444;48.056;14.408;2022-08-25T07:46:46;97713.97;;;20.58;86.94
38912;BME280;28444;48.056;14.408;2022-08-25T07:49:12;97707.97;;;20.64;87.81
38912;BME280;28444;48.056;14.408;2022-08-25T07:51:43;97714.06;;;20.60;87.69
38912;BME280;28444;48.056;14.408;2022-08-25T07:54:30;97717.19;;;20.68;86.03
38912;BME280;28444;48.056;14.408;2022-08-25T07:56:59;97711.53;;;20.82;86.57
38912;BME280;28444;48.056;14.408;2022-08-25T07:59:26;97717.16;;;21.00;85.23
38912;BME280;28444;48.056;14.408;2022-08-25T08:01:53;97717.69;;;21.30;85.32
38912;BME280;28444;48.056;14.408;2022-08-25T08:04:20;97716.91;;;21.46;84.16
38912;BME280;28444;48.056;14.408;2022-08-25T08:06:47;97722.66;;;21.50;83.70
38912;BME280;28444;48.056;14.408;2022-08-25T08:09:14;97710.19;;;21.51;83.24
38912;BME280;28444;48.056;14.408;2022-08-25T08:11:41;97718.38;;;21.65;82.28
38912;BME280;28444;48.056;14.408;2022-08-25T08:14:20;97717.34;;;21.74;82.14
38912;BME280;28444;48.056;14.408;2022-08-25T08:16:46;97713.88;;;21.93;82.76
38912;BME280;28444;48.056;14.408;2022-08-25T08:19:14;97716.50;;;22.07;80.37
38912;BME280;28444;48.056;14.408;2022-08-25T08:21:40;97711.06;;;22.29;79.45
38912;BME280;28444;48.056;14.408;2022-08-25T08:24:07;97717.31;;;22.47;79.64
38912;BME280;28444;48.056;14.408;2022-08-25T08:26:54;97715.31;;;22.70;79.42
38912;BME280;28444;48.056;14.408;2022-08-25T08:29:24;97716.44;;;22.82;79.22
38912;BME280;28444;48.056;14.408;2022-08-25T08:31:52;97713.38;;;22.94;78.10
38912;BME280;28444;48.056;14.408;2022-08-25T08:34:19;97705.53;;;22.89;77.86
38912;BME280;28444;48.056;14.408;2022-08-25T08:36:51;97709.97;;;22.96;79.38
38912;BME280;28444;48.056;14.408;2022-08-25T08:39:18;97707.00;;;23.12;77.94
38912;BME280;28444;48.056;14.408;2022-08-25T08:45:05;97703.19;;;23.23;77.42
38912;BME280;28444;48.056;14.408;2022-08-25T08:48:43;97707.16;;;23.38;77.68
38912;BME280;28444;48.056;14.408;2022-08-25T08:53:50;97696.41;;;23.50;77.06
38912;BME280;28444;48.056;14.408;2022-08-25T08:56:28;97697.09;;;23.28;77.34
38912;BME280;28444;48.056;14.408;2022-08-25T08:58:58;97694.06;;;23.20;78.17
38912;BME280;28444;48.056;14.408;2022-08-25T09:01:44;97702.47;;;23.22;77.17
38912;BME280;28444;48.056;14.408;2022-08-25T09:04:44;97692.13;;;23.25;79.26
38912;BME280;28444;48.056;14.408;2022-08-25T09:07:16;97685.53;;;23.38;77.99
38912;BME280;28444;48.056;14.408;2022-08-25T09:09:46;97687.63;;;23.38;78.44
38912;BME280;28444;48.056;14.408;2022-08-25T09:13:23;97681.47;;;23.41;78.81
38912;BME280;28444;48.056;14.408;2022-08-25T09:16:08;97683.88;;;23.51;77.90
38912;BME280;28444;48.056;14.408;2022-08-25T09:20:02;97686.78;;;23.55;78.48
38912;BME280;28444;48.056;14.408;2022-08-25T09:22:58;97683.28;;;23.54;78.70
38912;BME280;28444;48.056;14.408;2022-08-25T09:26:14;97684.91;;;23.62;78.62
38912;BME280;28444;48.056;14.408;2022-08-25T09:28:54;97684.66;;;23.75;78.90
38912;BME280;28444;48.056;14.408;2022-08-25T09:31:32;97680.63;;;23.59;79.17
38912;BME280;28444;48.056;14.408;2022-08-25T09:34:03;97673.63;;;23.58;80.06
38912;BME280;28444;48.056;14.408;2022-08-25T09:36:30;97665.94;;;23.58;79.15
38912;BME280;28444;48.056;14.408;2022-08-25T09:39:05;97673.41;;;23.73;80.07
38912;BME280;28444;48.056;14.408;2022-08-25T09:41:53;97666.75;;;23.85;79.50
38912;BME280;28444;48.056;14.408;2022-08-25T09:44:40;97666.59;;;23.78;79.37
38912;BME280;28444;48.056;14.408;2022-08-25T09:47:24;97661.06;;;23.81;80.06
38912;BME280;28444;48.056;14.408;2022-08-25T09:50:00;97657.75;;;23.86;79.02
38912;BME280;28444;48.056;14.408;2022-08-25T09:52:39;97661.31;;;23.89;79.26
38912;BME280;28444;48.056;14.408;2022-08-25T09:55:28;97659.28;;;23.91;80.39
38912;BME280;28444;48.056;14.408;2022-08-25T09:57:58;97661.66;;;24.01;79.82
38912;BME280;28444;48.056;14.408;2022-08-25T10:00:33;97656.56;;;23.93;79.22
38912;BME280;28444;48.056;14.408;2022-08-25T10:03:07;97654.78;;;24.04;80.47
38912;BME280;28444;48.056;14.408;2022-08-25T10:06:08;97652.84;;;24.11;79.02
38912;BME280;28444;48.056;14.408;2022-08-25T10:09:06;97652.03;;;24.06;80.52
38912;BME280;28444;48.056;14.408;2022-08-25T10:11:42;97645.66;;;24.03;80.28
38912;BME280;28444;48.056;14.408;2022-08-25T10:14:21;97645.44;;;23.95;80.13
38912;BME280;28444;48.056;14.408;2022-08-25T10:17:11;97645.88;;;23.86;80.84
38912;BME280;28444;48.056;14.408;2022-08-25T10:19:38;97645.94;;;23.88;81.57
38912;BME280;28444;48.056;14.408;2022-08-25T10:22:24;97647.41;;;23.91;81.70
38912;BME280;28444;48.056;14.408;2022-08-25T10:24:58;97645.41;;;23.93;81.22
38912;BME280;28444;48.056;14.408;2022-08-25T10:35:58;97627.00;;;24.60;79.45
38912;BME280;28444;48.056;14.408;2022-08-25T10:38:51;97631.28;;;24.63;79.24
38912;BME280;28444;48.056;14.408;2022-08-25T10:41:58;97626.31;;;24.62;78.95
38912;BME280;28444;48.056;14.408;2022-08-25T10:44:45;97630.97;;;24.51;79.58
38912;BME280;28444;48.056;14.408;2022-08-25T10:48:11;97624.13;;;24.58;78.97
38912;BME280;28444;48.056;14.408;2022-08-25T10:58:11;97610.84;;;24.07;82.06
38912;BME280;28444;48.056;14.408;2022-08-25T11:00:53;97601.78;;;24.06;80.09
38912;BME280;28444;48.056;14.408;2022-08-25T11:06:11;97599.66;;;24.05;81.39
38912;BME280;28444;48.056;14.408;2022-08-25T11:08:51;97593.88;;;23.98;83.24
38912;BME280;28444;48.056;14.408;2022-08-25T11:11:37;97593.97;;;23.76;83.66
38912;BME280;28444;48.056;14.408;2022-08-25T11:14:11;97590.94;;;23.68;81.52
38912;BME280;28444;48.056;14.408;2022-08-25T11:16:50;97584.78;;;23.72;84.01
38912;BME280;28444;48.056;14.408;2022-08-25T11:19:43;97579.22;;;23.74;82.55
38912;BME280;28444;48.056;14.408;2022-08-25T11:25:25;97581.13;;;23.91;83.70
38912;BME280;28444;48.056;14.408;2022-08-25T11:28:02;97581.94;;;23.96;84.36
38912;BME280;28444;48.056;14.408;2022-08-25T11:30:32;97579.09;;;23.94;84.45
38912;BME280;28444;48.056;14.408;2022-08-25T11:32:59;97575.59;;;23.93;83.05
38912;BME280;28444;48.056;14.408;2022-08-25T11:35:34;97575.66;;;23.95;82.45
38912;BME280;28444;48.056;14.408;2022-08-25T11:41:23;97579.81;;;23.94;82.30
38912;BME280;28444;48.056;14.408;2022-08-25T11:44:31;97576.97;;;23.92;81.93
38912;BME280;28444;48.056;14.408;2022-08-25T11:47:50;97573.75;;;23.78;81.11
38912;BME280;28444;48.056;14.408;2022-08-25T11:50:33;97576.81;;;23.86;81.91
38912;BME280;28444;48.056;14.408;2022-08-25T11:53:19;97580.78;;;23.79;80.49
38912;BME280;28444;48.056;14.408;2022-08-25T11:55:56;97566.25;;;23.83;82.15
38912;BME280;28444;48.056;14.408;2022-08-25T11:58:45;97570.19;;;23.99;81.41
38912;BME280;28444;48.056;14.408;2022-08-25T12:04:35;97567.13;;;24.15;79.94
38912;BME280;28444;48.056;14.408;2022-08-25T12:07:31;97560.34;;;24.22;79.31
38912;BME280;28444;48.056;14.408;2022-08-25T12:10:23;97557.84;;;24.35;78.82
38912;BME280;28444;48.056;14.408;2022-08-25T12:13:23;97557.47;;;24.46;79.92
38912;BME280;28444;48.056;14.408;2022-08-25T12:15:55;97559.47;;;24.42;78.48
38912;BME280;28444;48.056;14.408;2022-08-25T12:18:42;97547.78;;;24.49;78.80
38912;BME280;28444;48.056;14.408;2022-08-25T12:21:12;97556.38;;;24.58;78.54
38912;BME280;28444;48.056;14.408;2022-08-25T12:24:03;97555.72;;;24.59;79.42
38912;BME280;28444;48.056;14.408;2022-08-25T12:26:43;97556.06;;;24.45;79.44
38912;BME280;28444;48.056;14.408;2022-08-25T12:29:42;97543.81;;;24.33;80.89
38912;BME280;28444;48.056;14.408;2022-08-25T12:32:36;97542.31;;;24.27;81.72
38912;BME280;28444;48.056;14.408;2022-08-25T12:36:16;97550.41;;;24.17;79.08
38912;BME280;28444;48.056;14.408;2022-08-25T12:38:47;97547.50;;;24.13;80.84
38912;BME280;28444;48.056;14.408;2022-08-25T12:41:23;97545.31;;;24.10;81.66
38912;BME280;28444;48.056;14.408;2022-08-25T12:43:53;97548.09;;;24.08;82.12
38912;BME280;28444;48.056;14.408;2022-08-25T12:46:37;97537.13;;;23.90;80.80
38912;BME280;28444;48.056;14.408;2022-08-25T12:49:34;97540.63;;;23.90;82.63
38912;BME280;28444;48.056;14.408;2022-08-25T12:52:06;97534.44;;;23.94;82.13
38912;BME280;28444;48.056;14.408;2022-08-25T12:57:43;97526.94;;;24.00;82.38
38912;BME280;28444;48.056;14.408;2022-08-25T13:00:22;97529.78;;;24.02;81.54
38912;BME280;28444;48.056;14.408;2022-08-25T13:10:16;97520.09;;;24.06;80.13
38912;BME280;28444;48.056;14.408;2022-08-25T13:12:17;97516.03;;;24.11;81.14
38912;BME280;28444;48.056;14.408;2022-08-25T13:14:55;97521.41;;;24.02;81.50
38912;BME280;28444;48.056;14.408;2022-08-25T13:17:31;97519.09;;;23.95;81.34
38912;BME280;28444;48.056;14.408;2022-08-25T13:20:23;97518.19;;;23.86;81.77
38912;BME280;28444;48.056;14.408;2022-08-25T13:22:52;97518.13;;;23.84;82.59
38912;BME280;28444;48.056;14.408;2022-08-25T13:25:27;97506.06;;;23.77;81.90
38912;BME280;28444;48.056;14.408;2022-08-25T13:28:03;97513.09;;;23.78;81.92
38912;BME280;28444;48.056;14.408;2022-08-25T13:30:33;97503.94;;;23.76;82.44
38912;BME280;28444;48.056;14.408;2022-08-25T13:33:17;97503.00;;;23.67;82.61
38912;BME280;28444;48.056;14.408;2022-08-25T13:35:51;97505.97;;;23.73;83.25
38912;BME280;28444;48.056;14.408;2022-08-25T13:38:37;97506.06;;;23.77;82.42
38912;BME280;28444;48.056;14.408;2022-08-25T13:41:05;97504.75;;;23.81;82.99
38912;BME280;28444;48.056;14.408;2022-08-25T13:43:36;97499.75;;;23.75;82.33
38912;BME280;28444;48.056;14.408;2022-08-25T13:46:05;97494.75;;;23.71;80.95
38912;BME280;28444;48.056;14.408;2022-08-25T13:48:38;97500.50;;;23.77;82.36
38912;BME280;28444;48.056;14.408;2022-08-25T13:51:26;97481.72;;;23.80;81.50
38912;BME280;28444;48.056;14.408;2022-08-25T13:54:03;97482.53;;;23.85;80.83
38912;BME280;28444;48.056;14.408;2022-08-25T13:56:39;97480.78;;;23.97;81.49
38912;BME280;28444;48.056;14.408;2022-08-25T13:59:23;97480.28;;;24.05;79.36
38912;BME280;28444;48.056;14.408;2022-08-25T14:01:52;97480.47;;;24.11;80.33
38912;BME280;28444;48.056;14.408;2022-08-25T14:04:29;97477.09;;;24.17;79.00
38912;BME280;28444;48.056;14.408;2022-08-25T14:10:09;97464.09;;;24.27;79.56
38912;BME280;28444;48.056;14.408;2022-08-25T14:12:45;97466.44;;;24.37;79.23
38912;BME280;28444;48.056;14.408;2022-08-25T14:18:12;97462.56;;;24.50;79.76